This is the latest recevied weather packets stored in our database for station/object EA7OC-10. If no packets are shown the sender has not sent any weather packets the latest 10 day(s).
| Time | Temp. | Humidity | Pressure | Rain* | Wind** | Luminosity | Snow |
|---|---|---|---|---|---|---|---|
| 1777957179 | 12.78° C | 31% | 1015.3 hPa | - | - | - | - |
| 1777956278 | 12.78° C | 31% | 1015.1 hPa | - | - | - | - |
| 1777955378 | 12.78° C | 31% | 1015.1 hPa | - | - | - | - |
| 1777954478 | 13.33° C | 31% | 1015.2 hPa | - | - | - | - |
| 1777953578 | 13.33° C | 31% | 1015.3 hPa | - | - | - | - |
| 1777943677 | 15° C | 30% | 1015.5 hPa | - | - | - | - |
| 1777941900 | 15.56° C | 30% | 1015.7 hPa | - | - | - | - |
| 1777940096 | 16.11° C | 30% | 1015.8 hPa | - | - | - | - |
| 1777937394 | 16.11° C | 30% | 1015.8 hPa | - | - | - | - |
| 1777929293 | 19.44° C | 30% | 1015.8 hPa | - | - | - | - |
| 1777919392 | 26.11° C | 28% | 1013.4 hPa | - | - | - | - |
| 1777915789 | 31.11° C | 29% | 1013.3 hPa | - | - | - | - |
| 1777913987 | 31.11° C | 29% | 1013.4 hPa | - | - | - | - |
| 1777908583 | 31.67° C | 31% | 1013.5 hPa | - | - | - | - |
| 1777907683 | 31.67° C | 30% | 1013.6 hPa | - | - | - | - |
| 1777905879 | 30.56° C | 31% | 1014 hPa | - | - | - | - |
| 1777904979 | 31.67° C | 31% | 1014.1 hPa | - | - | - | - |
| 1777903179 | 31.11° C | 31% | 1014.3 hPa | - | - | - | - |
| 1777902279 | 30° C | 31% | 1014.3 hPa | - | - | - | - |
| 1777901379 | 30.56° C | 32% | 1014.5 hPa | - | - | - | - |
| 1777900478 | 30.56° C | 31% | 1014.5 hPa | - | - | - | - |
| 1777897778 | 29.44° C | 32% | 1014.9 hPa | - | - | - | - |
| 1777896878 | 30° C | 34% | 1015 hPa | - | - | - | - |
| 1777895978 | 30° C | 32% | 1015.2 hPa | - | - | - | - |
| 1777895078 | 30.56° C | 33% | 1015.3 hPa | - | - | - | - |
* Rain since midnight (hover to see other rain measurements)
** Current wind speed in m/s (hover to see current wind gust speed)